Time;durP1;ratioP1;P1;durP2;ratioP2;P2;SDS_P1;SDS_P2;PMS_P1;PMS_P2;Temp;Humidity;BMP_temperature;BMP_pressure;BME280_temperature;BME280_humidity;BME280_pressure;Samples;Min_cycle;Max_cycle;Signal;HPM_P1;HPM_P2
2021/09/16 00:01:45;;;;;;;52.50;27.40;;;10.10;98.80;;;;;;5037882;28;20121;-92
2021/09/16 00:04:10;;;;;;;38.00;21.58;;;10.10;98.70;;;;;;5037545;28;20072;-92
2021/09/16 00:06:36;;;;;;;44.22;23.90;;;10.00;98.70;;;;;;5037764;28;20075;-91
2021/09/16 00:09:02;;;;;;;39.03;20.48;;;10.00;98.70;;;;;;5037519;28;20079;-91
2021/09/16 00:11:27;;;;;;;34.28;18.60;;;10.00;98.70;;;;;;5037608;28;20079;-92
2021/09/16 00:13:53;;;;;;;29.42;17.30;;;10.00;98.70;;;;;;5037649;28;20036;-92
2021/09/16 00:16:19;;;;;;;31.70;17.33;;;10.00;98.80;;;;;;5037485;28;20021;-91
2021/09/16 00:18:44;;;;;;;30.88;17.58;;;10.00;98.80;;;;;;5037449;28;20029;-91
2021/09/16 00:21:10;;;;;;;29.73;16.55;;;10.00;98.80;;;;;;5037395;28;20082;-91
2021/09/16 00:23:36;;;;;;;28.00;15.88;;;9.90;98.80;;;;;;5036746;28;20123;-91
2021/09/16 00:26:01;;;;;;;26.58;15.55;;;9.90;98.90;;;;;;5053180;28;20390;-92
2021/09/16 00:28:27;;;;;;;31.13;15.73;;;9.80;98.90;;;;;;5057253;28;20497;-91
2021/09/16 00:30:53;;;;;;;31.90;15.48;;;9.80;99.00;;;;;;5057401;28;20032;-91
2021/09/16 00:33:18;;;;;;;32.38;15.77;;;9.80;99.00;;;;;;5075127;28;20560;-91
2021/09/16 00:35:44;;;;;;;31.85;16.30;;;9.80;99.10;;;;;;5074767;28;20023;-91
2021/09/16 00:38:09;;;;;;;36.08;17.00;;;9.80;99.10;;;;;;5057082;28;20111;-91
2021/09/16 00:40:35;;;;;;;36.65;16.90;;;9.80;99.10;;;;;;5056951;28;20070;-91
2021/09/16 00:43:01;;;;;;;33.45;17.50;;;9.80;99.10;;;;;;5039267;28;20098;-91
2021/09/16 00:45:27;;;;;;;35.30;18.45;;;9.70;99.20;;;;;;5054581;28;20013;-91
2021/09/16 00:47:52;;;;;;;40.03;18.58;;;9.70;99.30;;;;;;5037257;28;20481;-92
2021/09/16 00:50:20;;;;;;;32.58;18.08;;;9.70;99.40;;;;;;5037002;28;20021;-91
2021/09/16 00:52:46;;;;;;;37.72;18.30;;;9.70;99.30;;;;;;5037039;28;20028;-91
2021/09/16 00:55:12;;;;;;;41.08;18.30;;;9.70;99.30;;;;;;5054413;28;20025;-91
2021/09/16 00:57:39;;;;;;;39.88;18.92;;;9.60;99.20;;;;;;5054595;28;20047;-91
2021/09/16 01:00:08;;;;;;;33.83;17.80;;;9.60;99.20;;;;;;5054616;28;20028;-92
2021/09/16 01:02:34;;;;;;;32.17;17.48;;;9.60;99.20;;;;;;5036923;28;20162;-92
2021/09/16 01:05:00;;;;;;;34.35;18.13;;;9.60;99.10;;;;;;5036806;28;20368;-92
2021/09/16 01:07:26;;;;;;;37.53;18.02;;;9.70;99.20;;;;;;5054371;28;20130;-91
2021/09/16 01:09:51;;;;;;;38.08;17.85;;;9.60;99.30;;;;;;5054439;28;20056;-92
2021/09/16 01:12:17;;;;;;;38.63;18.17;;;9.60;99.30;;;;;;5036729;28;20028;-92
2021/09/16 01:14:44;;;;;;;34.95;17.65;;;9.60;99.40;;;;;;5054074;28;20021;-92
2021/09/16 01:17:11;;;;;;;35.22;17.95;;;9.60;99.40;;;;;;5054178;28;20056;-92
2021/09/16 01:19:37;;;;;;;32.10;17.63;;;9.50;99.40;;;;;;5036664;28;20474;-92
2021/09/16 01:22:04;;;;;;;35.78;17.73;;;9.50;99.50;;;;;;5036393;28;20132;-92
2021/09/16 01:24:29;;;;;;;36.17;17.50;;;9.50;99.60;;;;;;5054228;28;20025;-92
2021/09/16 01:26:55;;;;;;;32.80;17.23;;;9.50;99.60;;;;;;5054200;28;20070;-92
2021/09/16 01:29:21;;;;;;;36.72;18.55;;;9.50;99.60;;;;;;5054069;28;20226;-92
2021/09/16 01:31:50;;;;;;;32.05;16.90;;;9.50;99.60;;;;;;5054026;28;20379;-92
2021/09/16 01:34:17;;;;;;;38.17;18.10;;;9.40;99.70;;;;;;5054242;28;20072;-92
2021/09/16 01:36:44;;;;;;;34.17;18.27;;;9.40;99.70;;;;;;5057888;28;20021;-92
2021/09/16 01:39:12;;;;;;;36.45;18.70;;;9.40;99.70;;;;;;5058123;28;20025;-92
2021/09/16 01:41:38;;;;;;;39.58;18.73;;;9.40;99.80;;;;;;5057998;28;20050;-92
2021/09/16 01:44:04;;;;;;;33.35;17.65;;;9.30;99.80;;;;;;5040435;28;20413;-91
2021/09/16 01:46:30;;;;;;;36.00;17.23;;;9.30;99.90;;;;;;5057832;28;20025;-91
2021/09/16 01:49:00;;;;;;;32.92;16.17;;;9.30;99.90;;;;;;5057972;28;20025;-92
2021/09/16 01:51:26;;;;;;;33.97;17.65;;;9.30;99.90;;;;;;5057947;28;20052;-92
2021/09/16 01:53:52;;;;;;;32.35;16.73;;;9.30;99.90;;;;;;5040112;28;20061;-91
2021/09/16 01:56:18;;;;;;;33.58;18.48;;;9.20;99.90;;;;;;5057774;28;20098;-91
2021/09/16 01:58:43;;;;;;;41.28;19.42;;;9.20;99.90;;;;;;5057816;28;20028;-92
2021/09/16 02:01:09;;;;;;;32.88;17.27;;;9.20;99.90;;;;;;5057771;28;20416;-91
2021/09/16 02:03:35;;;;;;;31.77;17.15;;;9.10;99.90;;;;;;5040073;28;20363;-91
2021/09/16 02:06:00;;;;;;;32.38;17.30;;;9.20;99.90;;;;;;5040257;28;20021;-92
2021/09/16 02:08:26;;;;;;;34.70;17.85;;;9.20;99.90;;;;;;5040056;28;20028;-92
2021/09/16 02:10:52;;;;;;;36.30;18.35;;;9.20;99.90;;;;;;5057591;28;20051;-92
2021/09/16 02:13:18;;;;;;;32.60;18.08;;;9.10;99.90;;;;;;5057475;28;20025;-92
2021/09/16 02:15:44;;;;;;;35.35;17.90;;;9.20;99.90;;;;;;5039769;28;20417;-91
2021/09/16 02:18:10;;;;;;;38.08;17.30;;;9.10;99.90;;;;;;5057274;28;20025;-92
2021/09/16 02:20:36;;;;;;;34.10;17.17;;;9.10;99.90;;;;;;5039621;28;20377;-92
2021/09/16 02:23:01;;;;;;;29.92;16.88;;;9.10;99.90;;;;;;5039245;28;20212;-92
2021/09/16 02:25:27;;;;;;;28.17;16.48;;;9.10;99.90;;;;;;5057500;28;20032;-91
2021/09/16 02:27:53;;;;;;;31.67;17.92;;;9.10;99.90;;;;;;5039434;28;20025;-92
2021/09/16 02:30:19;;;;;;;31.17;15.98;;;9.10;99.90;;;;;;5039385;28;20021;-92
2021/09/16 02:32:45;;;;;;;31.45;16.50;;;9.10;99.90;;;;;;5057188;28;20032;-92
2021/09/16 02:35:12;;;;;;;29.08;16.23;;;9.10;99.90;;;;;;5039492;28;20025;-92
2021/09/16 02:37:38;;;;;;;28.83;16.33;;;9.10;99.90;;;;;;5057534;28;20459;-92
2021/09/16 02:40:10;;;;;;;33.10;16.20;;;9.10;99.90;;;;;;5056757;28;20025;-91
2021/09/16 02:42:35;;;;;;;30.98;16.48;;;9.00;99.90;;;;;;5039131;28;20039;-92
2021/09/16 02:45:02;;;;;;;28.95;15.25;;;9.00;99.90;;;;;;5057272;28;20058;-92
2021/09/16 02:47:28;;;;;;;27.13;14.90;;;9.00;99.90;;;;;;5056353;28;20059;-91
2021/09/16 02:49:53;;;;;;;27.98;15.07;;;9.00;99.90;;;;;;5038893;28;20021;-91
2021/09/16 02:52:19;;;;;;;25.77;13.57;;;9.00;99.90;;;;;;5038636;28;20060;-92
2021/09/16 02:54:44;;;;;;;32.25;15.07;;;9.00;99.90;;;;;;5039142;28;20438;-91
2021/09/16 02:57:10;;;;;;;31.77;16.50;;;9.00;99.90;;;;;;5038894;28;20021;-91
2021/09/16 02:59:36;;;;;;;27.73;15.55;;;9.00;99.90;;;;;;5038880;28;20029;-91
2021/09/16 03:02:01;;;;;;;29.23;16.55;;;9.00;99.90;;;;;;5056080;28;20071;-92
2021/09/16 03:04:27;;;;;;;28.35;15.15;;;8.90;99.90;;;;;;5022585;28;20029;-91
2021/09/16 03:06:53;;;;;;;25.27;14.90;;;8.90;99.90;;;;;;5038650;28;20117;-91
2021/09/16 03:09:19;;;;;;;29.30;15.20;;;8.90;99.90;;;;;;5038597;28;20364;-91
2021/09/16 03:11:44;;;;;;;27.08;14.30;;;8.90;99.90;;;;;;5038696;28;20405;-91
2021/09/16 03:14:10;;;;;;;25.95;14.45;;;9.00;99.90;;;;;;5038661;28;20025;-92
2021/09/16 03:16:36;;;;;;;29.10;14.15;;;9.00;99.90;;;;;;5037936;28;20017;-92
2021/09/16 03:19:01;;;;;;;24.75;13.60;;;9.20;99.90;;;;;;5038058;28;20064;-91
2021/09/16 03:21:27;;;;;;;26.30;14.23;;;9.30;99.90;;;;;;5022075;28;20025;-92
2021/09/16 03:23:53;;;;;;;26.35;14.07;;;9.40;99.90;;;;;;5034553;28;20045;-92
2021/09/16 03:26:19;;;;;;;27.38;14.00;;;9.50;99.90;;;;;;5035001;28;20071;-92
2021/09/16 03:28:44;;;;;;;24.48;13.50;;;9.60;99.90;;;;;;5034645;28;20140;-93
2021/09/16 03:31:10;;;;;;;33.50;15.07;;;9.80;99.90;;;;;;5035838;28;20025;-93
2021/09/16 03:33:36;;;;;;;30.42;14.68;;;9.80;99.90;;;;;;5035692;28;20021;-93
2021/09/16 03:36:02;;;;;;;30.50;14.07;;;9.90;99.90;;;;;;5034496;28;20459;-92
2021/09/16 03:38:28;;;;;;;30.98;13.95;;;10.00;99.90;;;;;;5035046;28;20045;-93
2021/09/16 03:40:53;;;;;;;30.05;15.55;;;10.20;99.90;;;;;;5034515;28;20053;-92
2021/09/16 03:43:20;;;;;;;30.20;15.35;;;10.30;99.90;;;;;;5035683;28;20025;-93
2021/09/16 03:45:45;;;;;;;26.42;15.18;;;10.30;99.90;;;;;;5034166;28;20029;-92
2021/09/16 03:48:11;;;;;;;30.40;14.73;;;10.40;99.90;;;;;;5034625;28;20059;-91
2021/09/16 16:10:51;;;;;;;6.85;3.40;;;16.80;68.70;;;;;;5111244;27;20389;-85
2021/09/16 16:13:17;;;;;;;8.80;3.13;;;16.20;70.20;;;;;;5111473;28;20082;-85
2021/09/16 16:15:42;;;;;;;17.17;4.18;;;16.10;72.60;;;;;;5110763;28;20055;-85
2021/09/16 16:18:08;;;;;;;18.90;4.45;;;16.00;74.00;;;;;;5110730;28;20374;-85
2021/09/16 16:20:34;;;;;;;12.23;3.70;;;15.90;75.60;;;;;;5110347;28;20043;-86
2021/09/16 16:22:59;;;;;;;14.30;4.20;;;15.80;76.70;;;;;;5112071;28;20023;-86
2021/09/16 16:25:25;;;;;;;20.70;4.20;;;15.80;77.90;;;;;;5113960;28;20020;-85
2021/09/16 16:27:51;;;;;;;21.17;4.35;;;15.70;78.70;;;;;;5114332;28;20028;-88
2021/09/16 16:30:17;;;;;;;171.15;107.43;;;15.70;79.60;;;;;;5114668;28;20042;-91
2021/09/16 16:32:43;;;;;;;30.40;17.92;;;15.80;80.40;;;;;;5091494;28;20359;-83
2021/09/16 16:35:11;;;;;;;44.47;14.98;;;15.80;80.90;;;;;;5091846;28;20054;-87
2021/09/16 16:37:37;;;;;;;20.45;9.93;;;15.90;81.50;;;;;;5093479;28;20020;-91
2021/09/16 16:40:06;;;;;;;31.08;10.82;;;16.00;81.70;;;;;;5116007;28;20058;-91
2021/09/16 16:42:32;;;;;;;32.90;12.30;;;16.10;82.40;;;;;;5117332;28;20028;-95
2021/09/16 16:44:58;;;;;;;36.28;13.40;;;16.10;82.70;;;;;;5112880;28;20027;-85
2021/09/16 16:47:24;;;;;;;16.88;8.05;;;16.30;82.70;;;;;;5115684;28;20028;-84
2021/09/16 16:49:50;;;;;;;31.42;17.67;;;16.40;82.10;;;;;;5112980;28;20488;-87
2021/09/16 16:52:39;;;;;;;82.03;44.47;;;16.40;81.20;;;;;;5114239;28;20016;-88
2021/09/16 16:55:17;;;;;;;109.00;68.78;;;16.50;80.70;;;;;;5103108;28;20477;-87
2021/09/16 16:57:43;;;;;;;170.90;104.82;;;16.50;80.70;;;;;;5114424;28;20477;-88
2021/09/16 17:00:10;;;;;;;62.72;43.15;;;16.60;80.80;;;;;;5114348;28;20031;-82
2021/09/16 17:02:37;;;;;;;43.72;29.65;;;16.60;80.60;;;;;;5114256;28;20019;-85
2021/09/16 17:05:03;;;;;;;48.08;22.80;;;16.60;80.60;;;;;;5113571;28;20069;-88
2021/09/16 17:07:29;;;;;;;28.60;18.25;;;16.60;80.70;;;;;;5114296;28;20020;-94
2021/09/16 17:09:55;;;;;;;26.60;14.43;;;16.60;80.80;;;;;;5111171;28;20458;-89
2021/09/16 17:12:20;;;;;;;74.75;48.63;;;16.60;80.80;;;;;;5112495;28;20024;-84
2021/09/16 17:14:46;;;;;;;81.95;46.75;;;16.60;80.80;;;;;;5111034;28;20020;-92
2021/09/16 17:17:12;;;;;;;35.45;20.45;;;16.60;80.60;;;;;;5101064;28;20108;-83
2021/09/16 17:19:38;;;;;;;46.78;26.05;;;16.60;81.20;;;;;;5103249;28;20127;-92
2021/09/16 17:22:04;;;;;;;36.13;22.90;;;16.60;80.80;;;;;;5101670;28;20086;-86
2021/09/16 17:24:30;;;;;;;33.67;20.48;;;16.50;80.90;;;;;;5100346;28;20035;-91
2021/09/16 17:26:56;;;;;;;32.45;16.13;;;16.50;81.00;;;;;;5100523;28;20020;-91
2021/09/16 17:29:21;;;;;;;27.30;12.63;;;16.50;80.80;;;;;;5098309;28;20035;-91
2021/09/16 17:31:47;;;;;;;30.58;11.73;;;16.50;80.70;;;;;;5097705;28;20055;-86
2021/09/16 17:34:13;;;;;;;44.53;14.30;;;16.40;80.70;;;;;;5096538;28;20713;-85
2021/09/16 17:36:38;;;;;;;28.20;13.32;;;16.30;80.80;;;;;;5099865;28;20420;-85
2021/09/16 17:39:05;;;;;;;35.72;18.20;;;16.30;80.90;;;;;;5099371;28;20028;-94
2021/09/16 17:41:30;;;;;;;44.30;22.55;;;16.30;81.30;;;;;;5100382;28;20251;-91
2021/09/16 17:43:56;;;;;;;52.50;24.80;;;16.30;81.60;;;;;;5102237;28;20032;-88
2021/09/16 17:46:27;;;;;;;41.42;20.15;;;16.20;81.80;;;;;;5099488;28;20051;-95
2021/09/16 17:48:52;;;;;;;35.95;17.30;;;16.20;82.20;;;;;;5099547;28;20035;-91
2021/09/16 17:51:19;;;;;;;46.33;23.23;;;16.10;82.90;;;;;;5099419;28;20017;-92
2021/09/16 17:53:45;;;;;;;53.67;27.73;;;16.00;83.40;;;;;;5101280;28;20020;-91
2021/09/16 17:56:11;;;;;;;64.22;32.67;;;16.00;84.00;;;;;;5099457;28;20421;-88
2021/09/16 17:58:37;;;;;;;39.25;19.65;;;15.90;84.50;;;;;;5098001;28;20020;-87
2021/09/16 18:01:06;;;;;;;37.00;16.45;;;15.90;84.40;;;;;;5099199;28;20540;-95
2021/09/16 18:03:32;;;;;;;64.20;34.38;;;15.80;84.40;;;;;;5099943;28;20024;-93
2021/09/16 18:05:58;;;;;;;99.40;52.78;;;15.80;84.50;;;;;;5099880;28;20034;-88
2021/09/16 18:08:23;;;;;;;152.85;76.43;;;15.80;84.70;;;;;;5097944;28;20028;-85
2021/09/16 18:10:49;;;;;;;158.60;63.35;;;15.70;85.40;;;;;;5094370;28;20036;-86
2021/09/16 18:13:15;;;;;;;72.75;38.10;;;15.70;86.10;;;;;;5095293;28;20035;-90
2021/09/16 18:15:41;;;;;;;54.17;27.15;;;15.80;86.20;;;;;;5096299;28;20048;-86
2021/09/16 18:18:06;;;;;;;64.75;28.27;;;15.90;86.10;;;;;;5096510;28;20020;-83
2021/09/16 18:20:32;;;;;;;56.85;26.50;;;16.00;85.70;;;;;;5097115;28;20036;-86
2021/09/16 18:23:00;;;;;;;52.42;26.00;;;16.10;85.60;;;;;;5096361;28;20020;-87
2021/09/16 18:25:26;;;;;;;53.40;23.15;;;16.20;85.50;;;;;;5096121;28;20024;-87
2021/09/16 18:27:54;;;;;;;59.20;24.50;;;16.20;85.00;;;;;;5097545;28;20035;-83
2021/09/16 18:30:23;;;;;;;53.90;24.33;;;16.30;85.20;;;;;;5094737;28;20382;-84
2021/09/16 18:32:51;;;;;;;37.25;19.10;;;16.20;83.70;;;;;;5093741;28;20509;-86
2021/09/16 18:35:17;;;;;;;33.58;15.70;;;16.30;83.60;;;;;;5097872;28;20017;-87
2021/09/16 18:37:42;;;;;;;31.75;15.85;;;16.30;82.30;;;;;;5096528;28;20023;-87
2021/09/16 18:40:09;;;;;;;38.10;19.25;;;16.20;82.00;;;;;;5095943;28;20051;-88
2021/09/16 18:42:39;;;;;;;28.85;14.35;;;16.20;82.30;;;;;;5095048;28;20443;-84
2021/09/16 18:45:09;;;;;;;33.75;14.80;;;16.20;82.40;;;;;;5094369;28;20020;-83
2021/09/16 18:47:35;;;;;;;27.27;12.27;;;16.30;82.50;;;;;;5094702;28;20031;-88
2021/09/16 18:50:00;;;;;;;31.70;13.23;;;16.30;82.00;;;;;;5095765;28;20028;-89
2021/09/16 18:52:26;;;;;;;23.92;11.50;;;16.20;82.40;;;;;;5094842;28;20020;-83
2021/09/16 18:54:51;;;;;;;25.42;12.00;;;16.20;82.20;;;;;;5094535;28;20049;-79
2021/09/16 18:57:17;;;;;;;24.67;12.35;;;16.20;82.00;;;;;;5093519;28;20030;-83
2021/09/16 18:59:43;;;;;;;31.20;14.77;;;16.10;82.30;;;;;;5095705;28;20492;-91
2021/09/16 19:02:09;;;;;;;49.50;17.48;;;16.10;82.60;;;;;;5094780;28;20056;-84
2021/09/16 19:04:34;;;;;;;137.65;69.43;;;16.00;83.00;;;;;;5097157;28;20051;-91
2021/09/16 19:07:01;;;;;;;149.15;65.05;;;15.90;82.80;;;;;;5096331;28;20035;-90
2021/09/16 19:09:27;;;;;;;86.95;44.03;;;15.90;83.10;;;;;;5094637;28;20040;-84
2021/09/16 19:11:53;;;;;;;65.38;29.17;;;15.90;83.30;;;;;;5093772;28;20035;-85
2021/09/16 19:14:19;;;;;;;48.70;25.33;;;15.90;83.80;;;;;;5094437;28;20020;-81
2021/09/16 19:16:44;;;;;;;44.45;22.58;;;15.90;83.50;;;;;;5094485;28;20095;-81
